Time;durP1;ratioP1;P1;durP2;ratioP2;P2;SDS_P1;SDS_P2;PMS_P1;PMS_P2;Temp;Humidity;BMP_temperature;BMP_pressure;BME280_temperature;BME280_humidity;BME280_pressure;Samples;Min_cycle;Max_cycle;Signal;HPM_P1;HPM_P2
2022/05/04 00:01:30;;;;;;;7.58;4.90;;;;;;;11.32;65.61;100840.75;1697760;84;25938;-77
2022/05/04 00:03:56;;;;;;;8.25;4.42;;;;;;;11.28;65.48;100852.03;1697967;84;25812;-77
2022/05/04 00:06:23;;;;;;;5.22;4.33;;;;;;;11.26;65.68;100857.59;1697650;84;25979;-77
2022/05/04 00:08:49;;;;;;;9.05;4.87;;;;;;;11.23;65.88;100857.11;1688021;84;25910;-77
2022/05/04 00:11:15;;;;;;;6.17;4.53;;;;;;;11.19;65.92;100853.97;1697509;84;27462;-77
2022/05/04 00:13:42;;;;;;;7.47;4.42;;;;;;;11.16;66.18;100855.67;1684570;84;26028;-77
2022/05/04 00:16:10;;;;;;;6.30;4.72;;;;;;;11.17;66.26;100852.48;1697809;84;25817;-77
2022/05/04 00:18:36;;;;;;;8.38;4.20;;;;;;;11.15;66.35;100847.31;1698082;84;25816;-77
2022/05/04 00:21:02;;;;;;;6.08;4.30;;;;;;;11.14;66.49;100855.55;1697971;84;25727;-77
2022/05/04 00:23:29;;;;;;;6.60;4.85;;;;;;;11.08;66.83;100858.94;1674489;84;27450;-77
2022/05/04 00:25:55;;;;;;;5.65;4.30;;;;;;;11.03;66.83;100851.48;1698029;84;25803;-77
2022/05/04 00:28:21;;;;;;;8.10;4.42;;;;;;;10.97;67.19;100854.87;1687816;84;26531;-77
2022/05/04 00:30:47;;;;;;;6.40;4.72;;;;;;;10.93;67.49;100849.55;1687977;84;26200;-77
2022/05/04 00:33:13;;;;;;;6.20;5.00;;;;;;;10.90;67.66;100853.11;1685102;84;25729;-77
2022/05/04 00:35:42;;;;;;;8.35;4.72;;;;;;;10.86;67.97;100859.36;1686326;84;26005;-77
2022/05/04 00:38:08;;;;;;;7.28;5.28;;;;;;;10.83;68.16;100854.34;1697826;84;26620;-77
2022/05/04 00:40:34;;;;;;;7.35;4.90;;;;;;;10.80;68.34;100853.36;1697624;84;26428;-77
2022/05/04 00:43:00;;;;;;;6.08;4.85;;;;;;;10.77;68.48;100851.06;1697583;84;25987;-77
2022/05/04 00:45:27;;;;;;;9.45;4.87;;;;;;;10.73;68.78;100854.59;1698199;84;25930;-77
2022/05/04 00:47:53;;;;;;;7.90;4.87;;;;;;;10.68;69.50;100847.63;1675442;84;28319;-77
2022/05/04 00:50:20;;;;;;;8.55;5.40;;;;;;;10.65;69.42;100852.49;1674573;84;25774;-77
2022/05/04 00:52:49;;;;;;;7.08;5.42;;;;;;;10.62;69.79;100860.91;1661576;85;26599;-77
2022/05/04 00:55:19;;;;;;;7.42;5.22;;;;;;;10.59;69.95;100868.80;1679034;84;26406;-78
2022/05/04 01:00:34;;;;;;;5.90;4.83;;;;;;;10.61;70.00;100884.67;1683165;84;27483;-77
2022/05/04 01:03:00;;;;;;;5.83;4.55;;;;;;;10.61;70.36;100886.86;1681877;84;25906;-77
2022/05/04 01:05:26;;;;;;;10.23;5.65;;;;;;;10.58;70.39;100883.22;1670135;84;25803;-77
2022/05/04 01:07:53;;;;;;;11.10;5.97;;;;;;;10.56;70.69;100886.55;1697521;83;26207;-77
2022/05/04 01:10:20;;;;;;;9.08;5.62;;;;;;;10.56;70.50;100889.23;1675897;84;26683;-77
2022/05/04 01:12:52;;;;;;;10.13;5.87;;;;;;;10.59;70.43;100898.26;1680284;84;27520;-77
2022/05/04 01:15:21;;;;;;;5.78;4.60;;;;;;;10.63;70.41;100904.92;1670212;84;26574;-77
2022/05/04 01:17:48;;;;;;;8.10;5.12;;;;;;;10.65;70.51;100898.03;1697255;84;25863;-77
2022/05/04 01:20:17;;;;;;;9.30;5.33;;;;;;;10.66;70.55;100898.37;1697136;84;26426;-77
2022/05/04 01:22:43;;;;;;;8.85;5.22;;;;;;;10.67;70.39;100900.05;1697633;84;26376;-77
2022/05/04 01:25:12;;;;;;;7.17;5.53;;;;;;;10.69;70.51;100908.22;1697903;84;28276;-77
2022/05/04 01:27:38;;;;;;;8.18;5.80;;;;;;;10.75;70.21;100909.36;1697572;84;26671;-77
2022/05/04 01:30:06;;;;;;;9.15;6.12;;;;;;;10.78;70.66;100905.80;1688537;84;26589;-77
2022/05/04 01:32:33;;;;;;;8.50;5.62;;;;;;;10.78;70.28;100907.64;1694039;84;26652;-77
2022/05/04 01:34:59;;;;;;;7.70;4.95;;;;;;;10.77;70.49;100904.16;1683835;84;25854;-77
2022/05/04 01:37:25;;;;;;;8.80;5.47;;;;;;;10.75;70.38;100902.16;1682732;84;27447;-77
2022/05/04 01:39:52;;;;;;;8.33;5.47;;;;;;;10.73;70.53;100902.81;1677348;84;26014;-77
2022/05/04 01:42:23;;;;;;;6.12;5.08;;;;;;;10.70;70.62;100905.88;1696886;84;25807;-77
2022/05/04 01:44:46;;;;;;;6.90;5.78;;;;;;;10.66;70.69;100905.91;1668956;84;26454;-77
2022/05/04 01:47:13;;;;;;;8.73;5.55;;;;;;;10.61;70.88;100902.93;1670097;84;25941;-77
2022/05/04 01:49:39;;;;;;;8.65;5.80;;;;;;;10.63;70.79;100904.08;1686099;84;27551;-77
2022/05/04 01:52:06;;;;;;;8.73;5.50;;;;;;;10.66;71.06;100901.89;1696590;83;26166;-77
2022/05/04 01:54:33;;;;;;;8.65;6.15;;;;;;;10.67;71.07;100904.08;1690581;84;25812;-77
2022/05/04 01:56:59;;;;;;;7.00;5.53;;;;;;;10.63;70.98;100906.27;1696876;84;26559;-77
2022/05/04 01:59:25;;;;;;;10.63;5.50;;;;;;;10.64;70.98;100901.25;1697693;84;25877;-77
2022/05/04 02:01:52;;;;;;;6.10;5.50;;;;;;;10.67;71.16;100906.75;1697264;84;28411;-77
2022/05/04 02:04:19;;;;;;;8.08;5.62;;;;;;;10.67;71.16;100904.88;1697317;84;26787;-77
2022/05/04 02:06:47;;;;;;;7.40;6.05;;;;;;;10.63;71.30;100906.27;1697741;84;25859;-77
2022/05/04 02:09:13;;;;;;;7.95;6.05;;;;;;;10.58;71.54;100908.66;1693741;84;26015;-77
2022/05/04 02:11:40;;;;;;;8.03;5.75;;;;;;;10.53;71.61;100907.02;1681750;84;26599;-77
2022/05/04 02:14:06;;;;;;;10.40;5.80;;;;;;;10.50;71.75;100910.57;1670231;84;28602;-76
2022/05/04 02:16:32;;;;;;;9.05;5.72;;;;;;;10.45;71.97;100906.25;1679439;84;25834;-77
2022/05/04 02:18:59;;;;;;;9.33;6.45;;;;;;;10.40;72.11;100908.11;1687843;84;25810;-77
2022/05/04 02:21:26;;;;;;;7.53;6.00;;;;;;;10.35;72.37;100911.81;1697953;83;25968;-77
2022/05/04 02:23:53;;;;;;;8.78;6.00;;;;;;;10.36;72.57;100916.67;1698094;84;25936;-77
2022/05/04 02:26:19;;;;;;;8.98;6.58;;;;;;;10.32;72.58;100918.05;1686965;84;27467;-77
2022/05/04 02:28:45;;;;;;;7.95;6.00;;;;;;;10.32;72.70;100917.55;1697996;84;25812;-78
2022/05/04 02:31:12;;;;;;;10.28;5.95;;;;;;;10.34;72.75;100920.03;1697940;84;25790;-77
2022/05/04 02:33:38;;;;;;;11.03;6.53;;;;;;;10.33;72.99;100927.23;1697830;84;25810;-77
2022/05/04 02:38:49;;;;;;;10.60;6.17;;;;;;;10.29;73.09;100919.23;1698731;84;28719;-78
2022/05/04 02:41:15;;;;;;;9.03;6.53;;;;;;;10.24;73.47;100922.13;1698085;84;26559;-77
2022/05/04 02:43:42;;;;;;;7.62;6.03;;;;;;;10.17;73.44;100921.98;1697242;84;25967;-77
2022/05/04 02:46:20;;;;;;;8.93;6.47;;;;;;;10.12;73.64;100922.17;1698148;84;26683;-77
2022/05/04 02:48:47;;;;;;;10.68;6.12;;;;;;;10.10;73.82;100930.35;1698349;84;25908;-77
2022/05/04 02:51:14;;;;;;;11.18;6.47;;;;;;;10.06;74.37;100931.72;1698105;84;28446;-77
2022/05/04 02:53:41;;;;;;;8.05;6.15;;;;;;;10.00;74.40;100935.94;1697692;84;25647;-77
2022/05/04 02:56:09;;;;;;;8.85;6.45;;;;;;;9.97;75.32;100930.08;1698115;84;25817;-77
2022/05/04 02:58:36;;;;;;;12.75;6.83;;;;;;;9.93;74.82;100938.13;1697579;84;26600;-77
2022/05/04 03:04:08;;;;;;;7.70;6.22;;;;;;;9.86;75.56;100942.50;1697723;84;27545;-77
2022/05/04 03:06:36;;;;;;;12.18;7.12;;;;;;;9.82;75.72;100938.02;1697907;83;25795;-77
2022/05/04 03:09:04;;;;;;;9.53;7.05;;;;;;;9.83;75.82;100944.20;1687075;84;26710;-77
2022/05/04 03:14:17;;;;;;;12.00;7.58;;;;;;;9.82;75.82;100942.02;1698162;84;25987;-77
2022/05/04 03:16:43;;;;;;;11.63;7.55;;;;;;;9.80;75.73;100946.72;1697934;84;27697;-77
2022/05/04 03:19:09;;;;;;;8.95;7.45;;;;;;;9.78;75.90;100944.72;1677566;84;26017;-77
2022/05/04 03:21:36;;;;;;;8.05;6.40;;;;;;;9.77;75.71;100945.72;1697148;84;26280;-77
2022/05/04 03:24:02;;;;;;;8.75;7.17;;;;;;;9.77;75.58;100952.41;1692303;84;25797;-77
2022/05/04 03:26:29;;;;;;;10.38;6.70;;;;;;;9.79;75.74;100951.75;1670215;84;26094;-77
2022/05/04 03:28:55;;;;;;;9.53;6.65;;;;;;;9.79;75.85;100953.59;1689603;84;27461;-77
2022/05/04 03:31:22;;;;;;;11.88;7.25;;;;;;;9.80;75.97;100964.11;1697757;84;25783;-77
2022/05/04 03:33:49;;;;;;;11.18;7.03;;;;;;;9.82;75.77;100967.94;1686280;84;25961;-77
2022/05/04 03:36:15;;;;;;;8.98;6.85;;;;;;;9.84;75.54;100968.59;1686434;84;25775;-77
2022/05/04 03:38:44;;;;;;;10.30;6.30;;;;;;;9.85;75.74;100968.45;1670221;84;25926;-77
2022/05/04 03:41:11;;;;;;;8.38;6.50;;;;;;;9.84;75.67;100970.78;1690087;84;28300;-77
2022/05/04 03:43:37;;;;;;;7.90;6.75;;;;;;;9.85;75.84;100974.30;1697087;84;26624;-77
2022/05/04 03:46:21;;;;;;;7.95;6.15;;;;;;;9.85;75.54;100973.80;1697321;83;25867;-77
2022/05/04 03:48:52;;;;;;;8.28;6.33;;;;;;;9.84;75.58;100977.47;1697888;84;25891;-77
2022/05/04 03:51:20;;;;;;;10.10;6.67;;;;;;;9.83;75.52;100981.17;1698026;84;26518;-77
2022/05/04 03:53:50;;;;;;;9.58;7.22;;;;;;;9.86;75.65;100978.63;1697038;84;28331;-77
2022/05/04 03:56:17;;;;;;;8.73;6.07;;;;;;;9.86;75.62;100980.80;1683254;84;26532;-77
2022/05/04 03:58:45;;;;;;;9.93;6.55;;;;;;;9.81;75.78;100988.53;1685441;84;25833;-77
2022/05/04 04:01:13;;;;;;;10.05;6.12;;;;;;;9.73;75.87;100988.53;1685496;84;26079;-77
2022/05/04 04:03:39;;;;;;;7.53;5.87;;;;;;;9.63;76.04;100983.89;1688232;84;25897;-77
2022/05/04 04:06:06;;;;;;;9.18;6.00;;;;;;;9.59;76.25;100990.59;1683389;84;27458;-77
2022/05/04 04:08:32;;;;;;;10.55;6.67;;;;;;;9.57;76.61;100993.09;1682386;84;25946;-78
2022/05/04 04:10:59;;;;;;;8.23;6.45;;;;;;;9.55;76.38;100992.44;1687179;84;25617;-77
2022/05/04 04:13:26;;;;;;;10.90;6.17;;;;;;;9.56;76.62;101000.28;1690640;83;26816;-77
2022/05/04 04:15:52;;;;;;;10.53;6.25;;;;;;;9.54;76.84;100998.28;1695641;84;26031;-78
2022/05/04 04:18:20;;;;;;;9.18;6.33;;;;;;;9.53;76.76;101001.12;1694773;84;28273;-78
2022/05/04 04:23:32;;;;;;;9.68;6.40;;;;;;;9.59;76.90;101005.80;1696026;84;26659;-77
2022/05/04 04:25:59;;;;;;;8.20;5.67;;;;;;;9.62;76.82;101006.80;1697228;82;25794;-78
2022/05/04 04:28:25;;;;;;;8.88;5.80;;;;;;;9.63;76.73;101013.80;1701396;82;25785;-77
2022/05/04 04:30:54;;;;;;;7.60;5.17;;;;;;;9.63;76.81;101018.66;1696331;82;26803;-77
2022/05/04 04:33:26;;;;;;;9.18;5.45;;;;;;;9.66;76.85;101019.67;1694027;82;25727;-77
2022/05/04 04:35:51;;;;;;;;;;;;;;;9.69;76.38;101018.47;1695709;84;25780;-77
2022/05/04 04:38:17;;;;;;;10.03;5.22;;;;;;;9.66;76.09;101018.33;1694921;84;25867;-78
2022/05/04 04:40:43;;;;;;;7.50;5.12;;;;;;;9.65;76.03;101023.33;1702661;82;25766;-77
2022/05/04 04:43:10;;;;;;;7.30;5.12;;;;;;;9.68;75.92;101019.00;1697636;82;28137;-77
2022/05/04 04:45:37;;;;;;;8.83;4.42;;;;;;;9.73;75.67;101023.84;1695738;82;26270;-78
2022/05/04 04:48:04;;;;;;;6.00;4.45;;;;;;;9.75;75.27;101030.66;1695063;82;25824;-78
2022/05/04 04:50:30;;;;;;;6.67;5.05;;;;;;;9.77;74.87;101023.82;1698092;82;25793;-77
2022/05/04 04:52:56;;;;;;;7.47;4.80;;;;;;;9.80;74.59;101033.66;1679243;84;25836;-77
2022/05/04 04:55:22;;;;;;;6.50;4.28;;;;;;;9.83;74.63;101035.17;1691591;84;27454;-78
2022/05/04 04:57:48;;;;;;;6.65;4.50;;;;;;;9.84;74.18;101030.98;1678618;84;26155;-78
2022/05/04 05:00:16;;;;;;;8.58;3.95;;;;;;;9.84;73.84;101028.30;1682449;84;25817;-77
2022/05/04 05:02:42;;;;;;;6.35;4.12;;;;;;;9.85;73.79;101031.33;1693061;84;26544;-78
2022/05/04 05:05:09;;;;;;;7.00;4.72;;;;;;;9.85;73.66;101034.50;1669982;84;25932;-78
2022/05/04 05:07:36;;;;;;;4.00;3.12;;;;;;;9.84;73.64;101032.81;1680183;84;27458;-77
2022/05/04 05:10:03;;;;;;;8.03;4.00;;;;;;;9.89;73.52;101033.14;1678671;84;25817;-77
2022/05/04 05:12:29;;;;;;;4.75;3.10;;;;;;;9.93;73.08;101031.78;1684849;84;25741;-78
2022/05/04 05:17:40;;;;;;;8.00;3.20;;;;;;;10.00;72.35;101038.13;1698286;84;25806;-77
2022/05/04 05:20:08;;;;;;;5.22;3.45;;;;;;;10.03;72.30;101045.80;1676852;84;27427;-78
2022/05/04 05:22:35;;;;;;;4.97;3.37;;;;;;;10.08;71.90;101030.91;1693110;84;25817;-77
2022/05/04 05:25:01;;;;;;;6.60;3.33;;;;;;;10.13;71.49;101029.58;1688500;84;26168;-77
2022/05/04 05:27:31;;;;;;;9.68;4.12;;;;;;;10.17;70.78;101042.45;1683825;84;25818;-78
2022/05/04 05:29:58;;;;;;;5.87;3.65;;;;;;;10.20;70.12;101041.28;1688395;84;26009;-78
2022/05/04 05:32:25;;;;;;;4.12;2.95;;;;;;;10.24;70.10;101052.80;1697835;84;27451;-77
2022/05/04 05:34:51;;;;;;;5.12;2.70;;;;;;;10.29;69.20;101049.58;1697954;84;25748;-78
2022/05/04 05:37:20;;;;;;;4.70;3.05;;;;;;;10.34;68.86;101050.75;1697528;84;25851;-78
2022/05/04 05:39:47;;;;;;;7.42;2.65;;;;;;;10.36;68.46;101050.06;1698156;84;25821;-78
2022/05/04 05:42:13;;;;;;;4.53;2.67;;;;;;;10.39;67.26;101046.21;1697831;84;25811;-77
2022/05/04 05:44:39;;;;;;;6.85;2.42;;;;;;;10.45;67.68;101053.05;1673007;84;27504;-77
2022/05/04 05:47:06;;;;;;;7.92;2.05;;;;;;;10.52;67.03;101063.36;1676769;84;25789;-77
2022/05/04 05:49:32;;;;;;;5.37;2.00;;;;;;;10.59;66.83;101064.34;1683558;84;25734;-78
2022/05/04 05:51:59;;;;;;;3.62;2.35;;;;;;;10.67;66.84;101061.61;1689292;84;26539;-77
2022/05/04 05:54:25;;;;;;;3.98;2.58;;;;;;;10.76;66.69;101059.72;1683339;84;26011;-77
2022/05/04 05:56:51;;;;;;;4.70;2.30;;;;;;;10.83;65.59;101061.53;1674779;84;27642;-78
2022/05/04 05:59:17;;;;;;;3.62;2.25;;;;;;;10.90;65.90;101070.20;1697752;84;26118;-78
2022/05/04 06:01:44;;;;;;;5.92;2.55;;;;;;;10.95;64.26;101062.47;1688264;84;25878;-78
2022/05/04 06:04:10;;;;;;;4.17;2.02;;;;;;;10.96;64.44;101061.44;1677249;84;25928;-78
2022/05/04 06:06:36;;;;;;;5.20;2.12;;;;;;;10.97;63.28;101061.78;1696836;84;26038;-78
2022/05/04 06:09:03;;;;;;;5.40;1.95;;;;;;;10.97;63.45;101058.58;1697891;84;27463;-77
2022/05/04 06:11:31;;;;;;;3.37;1.90;;;;;;;10.97;63.29;101060.45;1697906;83;25760;-78
2022/05/04 06:13:57;;;;;;;4.35;2.37;;;;;;;11.03;63.74;101069.11;1690933;84;26208;-78
2022/05/04 06:16:23;;;;;;;4.65;2.30;;;;;;;11.17;63.66;101073.69;1687869;84;26453;-78
2022/05/04 06:18:49;;;;;;;4.60;2.17;;;;;;;11.32;63.99;101074.58;1644890;85;25753;-78
2022/05/04 06:21:16;;;;;;;4.95;2.12;;;;;;;11.35;62.18;101078.25;1670300;85;27513;-78
2022/05/04 06:23:42;;;;;;;2.95;1.47;;;;;;;11.33;62.21;101071.70;1679523;84;25773;-78
2022/05/04 06:26:08;;;;;;;2.27;1.67;;;;;;;11.29;61.64;101079.78;1678820;84;25854;-78
2022/05/04 06:28:35;;;;;;;4.05;2.08;;;;;;;11.25;61.58;101079.82;1686249;84;25873;-77
2022/05/04 06:36:31;;;;;;;5.17;1.90;;;;;;;11.35;61.39;101076.91;1697788;84;25793;-78
2022/05/04 06:38:57;;;;;;;3.40;1.90;;;;;;;11.52;60.75;101080.63;1698387;84;25819;-77
2022/05/04 06:41:23;;;;;;;2.65;1.50;;;;;;;11.59;61.15;101083.39;1697663;84;25852;-77
2022/05/04 06:43:50;;;;;;;3.55;1.98;;;;;;;11.73;61.44;101089.84;1684758;84;25838;-78
2022/05/04 06:46:16;;;;;;;3.95;1.87;;;;;;;11.77;60.72;101093.33;1687434;84;28308;-78
2022/05/04 06:48:42;;;;;;;4.25;2.20;;;;;;;11.77;59.72;101088.46;1670152;84;26100;-78
2022/05/04 06:51:09;;;;;;;6.40;1.98;;;;;;;11.78;61.03;101090.98;1692081;84;25795;-78
2022/05/04 06:53:36;;;;;;;3.92;2.12;;;;;;;11.84;60.10;101090.75;1687032;84;25974;-78
2022/05/04 06:56:03;;;;;;;4.72;2.05;;;;;;;11.97;60.67;101083.75;1688900;84;25944;-77
2022/05/04 06:58:29;;;;;;;5.30;1.98;;;;;;;12.13;61.27;101078.18;1681890;84;26942;-78
2022/05/04 07:00:55;;;;;;;3.80;1.60;;;;;;;12.23;59.98;101080.06;1687182;84;25839;-78
2022/05/04 07:03:21;;;;;;;3.87;2.08;;;;;;;12.24;60.35;101081.75;1686212;84;25758;-78
2022/05/04 07:05:51;;;;;;;3.67;1.80;;;;;;;12.37;60.86;101075.22;1685094;84;26322;-78
2022/05/04 07:08:18;;;;;;;4.45;1.85;;;;;;;12.48;60.22;101069.03;1676060;84;25922;-79
2022/05/04 07:10:44;;;;;;;3.45;1.75;;;;;;;12.61;59.53;101068.70;1696207;84;27550;-77
2022/05/04 07:13:12;;;;;;;4.62;2.08;;;;;;;12.69;57.57;101068.58;1698246;84;26511;-78
2022/05/04 07:15:39;;;;;;;3.50;2.45;;;;;;;12.76;60.02;101068.66;1698054;83;26329;-78
2022/05/04 07:18:05;;;;;;;4.25;1.90;;;;;;;12.87;58.27;101067.63;1688650;84;25855;-78
2022/05/04 07:20:32;;;;;;;2.87;1.57;;;;;;;12.95;58.22;101068.05;1684844;84;26609;-78
2022/05/04 07:22:58;;;;;;;2.90;2.22;;;;;;;13.02;58.36;101069.77;1697710;84;28331;-78
2022/05/04 07:25:24;;;;;;;5.75;1.67;;;;;;;13.10;58.08;101073.73;1677090;84;25842;-77
2022/05/04 07:27:50;;;;;;;5.75;1.98;;;;;;;13.19;58.79;101078.48;1687726;84;26435;-77
2022/05/04 07:30:16;;;;;;;6.35;1.77;;;;;;;13.34;58.15;101081.94;1686946;84;26657;-79
2022/05/04 07:32:43;;;;;;;3.83;1.90;;;;;;;13.39;57.01;101089.40;1694330;84;25897;-78
2022/05/04 07:35:09;;;;;;;3.45;1.80;;;;;;;13.42;55.74;101089.87;1681631;84;27450;-79
2022/05/04 07:37:35;;;;;;;4.92;1.62;;;;;;;13.49;56.73;101092.62;1681541;84;25810;-78
2022/05/04 07:42:47;;;;;;;4.25;1.80;;;;;;;13.64;55.95;101094.19;1686015;84;25848;-78
2022/05/04 07:45:15;;;;;;;4.75;1.75;;;;;;;13.82;56.64;101096.40;1698690;84;26527;-78
2022/05/04 07:47:42;;;;;;;6.60;1.95;;;;;;;14.00;56.97;101095.91;1697714;84;27926;-78
2022/05/04 07:50:17;;;;;;;3.87;1.60;;;;;;;14.14;56.57;101095.80;1697978;83;25904;-79
2022/05/04 07:52:41;;;;;;;3.12;1.65;;;;;;;14.23;56.60;101101.36;1696706;84;25375;-78
2022/05/04 07:55:08;;;;;;;2.58;1.75;;;;;;;14.32;55.51;101100.20;1698072;84;25842;-78
2022/05/04 07:57:35;;;;;;;2.20;1.70;;;;;;;14.37;55.09;101098.27;1697655;84;25954;-78
2022/05/04 08:05:39;;;;;;;2.42;1.82;;;;;;;14.59;56.77;101105.20;1697860;84;26411;-79
2022/05/04 08:08:06;;;;;;;4.62;1.40;;;;;;;14.70;55.22;101095.20;1698190;83;26658;-78
2022/05/04 08:10:32;;;;;;;5.30;2.20;;;;;;;14.80;55.65;101105.63;1698441;84;26605;-78
2022/05/04 08:12:59;;;;;;;3.83;2.20;;;;;;;14.88;56.22;101100.88;1691121;84;27462;-78
2022/05/04 08:15:26;;;;;;;2.90;1.82;;;;;;;14.91;55.68;101108.55;1694755;84;26533;-78
2022/05/04 08:17:52;;;;;;;7.28;2.12;;;;;;;15.00;55.60;101110.03;1698040;84;25342;-78
2022/05/04 08:20:18;;;;;;;3.98;1.65;;;;;;;15.01;53.61;101113.03;1697610;84;25866;-77
2022/05/04 08:22:45;;;;;;;2.58;1.55;;;;;;;14.95;53.77;101114.39;1698103;84;26557;-78
2022/05/04 08:25:11;;;;;;;4.25;1.85;;;;;;;14.91;53.27;101121.19;1697836;84;28358;-78
2022/05/04 08:27:37;;;;;;;3.62;1.70;;;;;;;14.94;53.97;101119.45;1697634;83;26066;-78
2022/05/04 08:30:07;;;;;;;3.10;1.80;;;;;;;15.02;54.07;101117.91;1698145;84;25893;-78
2022/05/04 08:32:34;;;;;;;3.27;1.82;;;;;;;15.08;53.24;101121.14;1686709;84;25779;-78
2022/05/04 08:35:00;;;;;;;4.15;1.75;;;;;;;15.12;53.33;101114.34;1698265;84;25771;-78
2022/05/04 08:37:27;;;;;;;2.02;1.60;;;;;;;15.06;52.64;101121.36;1697802;84;28177;-79
2022/05/04 08:39:57;;;;;;;3.27;1.65;;;;;;;15.01;52.06;101119.77;1698463;84;25801;-78
2022/05/04 08:42:23;;;;;;;2.40;1.70;;;;;;;15.06;51.12;101128.61;1695915;84;25769;-78
2022/05/04 08:44:57;;;;;;;2.47;1.40;;;;;;;15.08;52.00;101123.33;1676611;84;25854;-78
2022/05/04 08:47:26;;;;;;;2.25;1.10;;;;;;;15.17;52.39;101125.33;1696331;84;26414;-78
2022/05/04 08:49:52;;;;;;;1.75;1.40;;;;;;;15.28;52.31;101124.73;1677377;84;27504;-78
2022/05/04 08:52:21;;;;;;;3.70;1.60;;;;;;;15.30;51.35;101115.91;1697941;84;26433;-78
2022/05/04 08:54:49;;;;;;;3.45;1.25;;;;;;;15.42;52.47;101120.50;1681804;84;26525;-78
2022/05/04 08:57:15;;;;;;;1.30;1.10;;;;;;;15.54;50.70;101117.23;1681207;84;25768;-79
2022/05/04 08:59:43;;;;;;;8.30;1.85;;;;;;;15.51;50.16;101118.47;1686633;84;25819;-78
2022/05/04 09:02:11;;;;;;;7.33;1.77;;;;;;;15.44;49.14;101121.67;1678310;84;27462;-79
2022/05/04 09:04:42;;;;;;;1.87;1.00;;;;;;;15.53;49.66;101119.09;1673306;84;26188;-78
2022/05/04 09:07:21;;;;;;;2.15;0.98;;;;;;;15.61;50.17;101114.02;1669700;84;25941;-79
2022/05/04 09:09:47;;;;;;;2.80;1.30;;;;;;;15.66;49.43;101117.75;1688035;84;26593;-79
2022/05/04 09:12:17;;;;;;;2.72;1.25;;;;;;;15.71;50.19;101113.09;1687091;84;25981;-78
2022/05/04 09:14:44;;;;;;;1.57;1.23;;;;;;;15.68;49.23;101114.33;1685315;84;29378;-79
2022/05/04 09:17:14;;;;;;;1.95;0.98;;;;;;;15.69;49.09;101108.41;1697830;83;26756;-78
2022/05/04 09:22:42;;;;;;;3.20;1.70;;;;;;;15.69;47.46;101106.55;1692660;84;26616;-79
2022/05/04 09:25:17;;;;;;;4.22;1.25;;;;;;;15.72;48.95;101106.12;1670128;84;25901;-78
2022/05/04 09:27:46;;;;;;;2.90;1.37;;;;;;;15.76;47.83;101104.66;1686818;84;28309;-78
2022/05/04 09:30:13;;;;;;;1.57;1.02;;;;;;;15.70;46.82;101109.55;1697193;84;25908;-78
2022/05/04 09:32:40;;;;;;;2.80;1.40;;;;;;;15.65;46.63;101104.47;1697616;84;25840;-78
2022/05/04 09:35:16;;;;;;;2.55;1.50;;;;;;;15.65;46.54;101104.47;1664572;84;44757;-78
2022/05/04 09:46:07;;;;;;;3.85;1.17;;;;;;;15.58;46.17;101097.72;1684929;84;26622;-77
2022/05/04 09:48:35;;;;;;;2.37;1.40;;;;;;;15.42;45.92;101104.30;1684287;84;25758;-78
2022/05/04 09:51:08;;;;;;;2.55;1.10;;;;;;;15.33;47.09;101098.78;1690934;83;25813;-77
2022/05/04 09:53:36;;;;;;;1.92;1.37;;;;;;;15.42;47.18;101098.06;1697693;84;27457;-78
2022/05/04 09:56:03;;;;;;;1.92;1.10;;;;;;;15.57;48.22;101089.28;1697870;84;25928;-77
2022/05/04 09:58:31;;;;;;;3.10;1.05;;;;;;;15.70;46.75;101093.34;1697676;84;25836;-78
2022/05/04 10:00:58;;;;;;;2.22;1.20;;;;;;;15.74;46.38;101094.58;1697687;84;25884;-77
2022/05/04 10:03:25;;;;;;;2.67;1.77;;;;;;;15.91;47.53;101101.22;1697593;84;25798;-78
2022/05/04 10:05:53;;;;;;;2.33;1.25;;;;;;;16.17;49.67;101099.00;1697904;84;27717;-78
2022/05/04 10:08:20;;;;;;;5.55;1.72;;;;;;;16.48;48.96;101095.09;1697905;84;25789;-77
2022/05/04 10:10:48;;;;;;;1.55;1.20;;;;;;;16.61;48.03;101102.36;1698121;84;25854;-77
2022/05/04 10:13:19;;;;;;;1.75;1.20;;;;;;;16.66;47.22;101097.12;1697766;84;25834;-78
2022/05/04 10:15:48;;;;;;;3.67;1.52;;;;;;;16.60;46.71;101099.33;1697783;83;25843;-78
2022/05/04 10:18:25;;;;;;;3.08;1.17;;;;;;;16.58;46.33;101097.36;1686934;84;27639;-78
2022/05/04 10:21:11;;;;;;;3.85;1.62;;;;;;;16.54;44.99;101096.97;1695544;84;26004;-78
2022/05/04 10:23:48;;;;;;;1.98;1.50;;;;;;;16.59;45.86;101092.28;1697426;84;26511;-78
2022/05/04 10:26:16;;;;;;;5.03;1.40;;;;;;;16.70;45.84;101092.42;1697426;84;25828;-78
2022/05/04 10:30:30;;;;;;;5.03;1.75;;;;;;;16.89;46.12;101086.64;1685292;84;25967;-78
2022/05/04 10:31:12;;;;;;;3.08;1.67;;;;;;;17.06;46.07;101083.73;1693557;84;28176;-78
2022/05/04 10:33:39;;;;;;;3.52;1.57;;;;;;;17.17;45.71;101079.50;1697811;84;25793;-77
2022/05/04 10:36:20;;;;;;;3.58;1.50;;;;;;;17.17;45.02;101083.56;1697890;84;25886;-77
2022/05/04 10:38:50;;;;;;;;;;;;;;;17.18;45.89;101086.04;1690570;84;25799;-77
2022/05/04 10:41:36;;;;;;;3.00;1.40;;;;;;;17.22;45.20;101083.20;1697305;84;26680;-77
2022/05/04 10:44:04;;;;;;;4.65;1.57;;;;;;;17.22;45.00;101079.14;1696826;84;28299;-77
2022/05/04 10:46:32;;;;;;;1.62;1.30;;;;;;;17.19;44.92;101080.95;1697031;84;25324;-78
2022/05/04 10:49:07;;;;;;;4.67;1.35;;;;;;;17.12;44.31;101078.80;1697902;84;25884;-77
2022/05/04 10:51:33;;;;;;;2.92;1.57;;;;;;;17.11;45.06;101079.83;1697048;84;25813;-77
2022/05/04 10:54:11;;;;;;;6.10;1.30;;;;;;;17.13;44.87;101079.08;1698059;84;25892;-77
2022/05/04 10:56:51;;;;;;;4.60;1.70;;;;;;;17.13;44.35;101075.02;1697151;84;28475;-78
2022/05/04 10:59:34;;;;;;;2.23;1.20;;;;;;;17.26;45.75;101074.94;1698233;84;25936;-77
2022/05/04 11:02:04;;;;;;;3.83;1.32;;;;;;;17.47;43.51;101067.00;1689516;84;25895;-78
2022/05/04 11:04:32;;;;;;;3.52;1.50;;;;;;;17.44;42.97;101066.07;1697283;84;26516;-78
2022/05/04 11:07:07;;;;;;;2.10;1.25;;;;;;;17.38;43.04;101073.73;1698032;84;25884;-78
2022/05/04 11:09:42;;;;;;;3.52;1.40;;;;;;;17.18;42.14;101076.56;1698190;84;28395;-78
2022/05/04 11:12:11;;;;;;;3.05;1.27;;;;;;;16.98;41.27;101076.39;1697799;84;25790;-77
2022/05/04 11:14:37;;;;;;;3.60;1.12;;;;;;;16.90;42.51;101076.94;1698075;84;25948;-77
2022/05/04 11:17:13;;;;;;;4.75;1.75;;;;;;;17.00;44.13;101074.29;1690401;84;26579;-78
2022/05/04 11:19:45;;;;;;;2.50;1.30;;;;;;;17.08;43.08;101066.75;1698807;84;25722;-78
2022/05/04 11:22:14;;;;;;;3.27;1.30;;;;;;;17.13;42.01;101066.09;1697901;84;27434;-77
2022/05/04 11:24:42;;;;;;;5.08;1.72;;;;;;;17.06;42.11;101074.25;1681547;84;25945;-78
2022/05/04 11:27:08;;;;;;;3.98;1.42;;;;;;;16.98;42.56;101074.48;1689387;84;25799;-77
2022/05/04 11:29:35;;;;;;;4.12;1.60;;;;;;;16.90;41.80;101076.94;1695508;84;26764;-78
2022/05/04 11:32:06;;;;;;;2.55;1.47;;;;;;;16.86;41.75;101073.01;1697863;84;25769;-78
2022/05/04 11:34:38;;;;;;;2.80;1.37;;;;;;;16.85;42.85;101079.45;1698147;84;27446;-79
2022/05/04 11:37:08;;;;;;;2.67;1.72;;;;;;;16.86;42.47;101070.30;1697625;84;25903;-76
2022/05/04 11:39:37;;;;;;;4.28;1.82;;;;;;;17.03;42.92;101071.97;1698063;84;25311;-77
2022/05/04 11:42:05;;;;;;;2.27;1.82;;;;;;;17.30;42.79;101070.74;1695782;84;26578;-79
2022/05/04 11:44:32;;;;;;;5.00;1.50;;;;;;;17.44;41.79;101062.84;1674788;84;25786;-77
2022/05/04 11:47:01;;;;;;;5.67;2.37;;;;;;;17.53;42.25;101062.08;1684356;84;27611;-77
2022/05/04 11:49:31;;;;;;;4.53;1.40;;;;;;;17.63;42.27;101060.53;1697690;83;26516;-78
2022/05/04 11:51:59;;;;;;;2.87;1.10;;;;;;;17.73;41.66;101060.84;1686635;84;25816;-77
2022/05/04 11:54:26;;;;;;;1.98;1.12;;;;;;;17.82;42.29;101060.56;1697215;84;25941;-77
2022/05/04 11:56:53;;;;;;;2.25;1.50;;;;;;;17.97;41.33;101059.16;1697541;84;25886;-77
2022/05/04 11:59:20;;;;;;;3.85;1.35;;;;;;;18.15;41.17;101051.59;1698079;84;27630;-78
2022/05/04 12:01:47;;;;;;;2.92;1.35;;;;;;;18.32;40.39;101055.36;1697773;84;26476;-77
2022/05/04 12:04:14;;;;;;;6.20;1.57;;;;;;;18.32;40.46;101052.12;1697894;84;25778;-78
2022/05/04 12:06:43;;;;;;;1.87;1.20;;;;;;;18.33;40.16;101044.80;1697778;84;25884;-77
2022/05/04 12:09:12;;;;;;;3.60;1.10;;;;;;;18.37;40.48;101046.83;1697099;83;25844;-79
2022/05/04 12:11:38;;;;;;;1.72;1.55;;;;;;;18.46;40.76;101044.16;1695262;84;27469;-77